sensor_id;sensor_type;location;lat;lon;timestamp;temperature;humidity
16243;DHT22;11719;51.052;6.982;2023-07-13T00:01:51;22.80;99.90
16243;DHT22;11719;51.052;6.982;2023-07-13T00:04:19;22.80;99.90
16243;DHT22;11719;51.052;6.982;2023-07-13T00:06:47;22.80;99.90
16243;DHT22;11719;51.052;6.982;2023-07-13T00:09:14;22.80;99.90
16243;DHT22;11719;51.052;6.982;2023-07-13T00:11:42;22.80;99.90
16243;DHT22;11719;51.052;6.982;2023-07-13T00:14:09;22.80;99.90
16243;DHT22;11719;51.052;6.982;2023-07-13T00:16:37;22.80;99.90
16243;DHT22;11719;51.052;6.982;2023-07-13T00:19:04;22.80;99.90
16243;DHT22;11719;51.052;6.982;2023-07-13T00:21:31;22.80;99.90
16243;DHT22;11719;51.052;6.982;2023-07-13T00:23:56;22.80;99.90
16243;DHT22;11719;51.052;6.982;2023-07-13T00:26:23;22.80;99.90
16243;DHT22;11719;51.052;6.982;2023-07-13T00:39:51;22.60;99.90
16243;DHT22;11719;51.052;6.982;2023-07-13T00:42:17;22.50;99.90
16243;DHT22;11719;51.052;6.982;2023-07-13T00:45:01;22.50;99.90
16243;DHT22;11719;51.052;6.982;2023-07-13T00:47:32;22.50;99.90
16243;DHT22;11719;51.052;6.982;2023-07-13T00:49:58;22.50;99.90
16243;DHT22;11719;51.052;6.982;2023-07-13T00:52:24;22.50;99.90
16243;DHT22;11719;51.052;6.982;2023-07-13T00:54:50;22.50;97.80
16243;DHT22;11719;51.052;6.982;2023-07-13T00:57:19;22.40;99.20
16243;DHT22;11719;51.052;6.982;2023-07-13T01:00:06;22.40;99.90
16243;DHT22;11719;51.052;6.982;2023-07-13T01:02:36;22.40;99.90
16243;DHT22;11719;51.052;6.982;2023-07-13T01:05:16;22.40;99.90
16243;DHT22;11719;51.052;6.982;2023-07-13T01:07:44;22.40;99.90
16243;DHT22;11719;51.052;6.982;2023-07-13T01:10:11;22.30;98.60
16243;DHT22;11719;51.052;6.982;2023-07-13T01:12:38;22.30;99.90
16243;DHT22;11719;51.052;6.982;2023-07-13T01:15:05;22.30;99.90
16243;DHT22;11719;51.052;6.982;2023-07-13T01:17:33;22.30;99.90
16243;DHT22;11719;51.052;6.982;2023-07-13T01:19:59;22.30;98.90
16243;DHT22;11719;51.052;6.982;2023-07-13T01:22:25;22.20;99.90
16243;DHT22;11719;51.052;6.982;2023-07-13T01:24:53;22.20;99.20
16243;DHT22;11719;51.052;6.982;2023-07-13T01:27:25;22.20;99.90
16243;DHT22;11719;51.052;6.982;2023-07-13T01:29:52;22.30;99.90
16243;DHT22;11719;51.052;6.982;2023-07-13T01:32:22;22.30;99.90
16243;DHT22;11719;51.052;6.982;2023-07-13T01:34:53;22.30;99.90
16243;DHT22;11719;51.052;6.982;2023-07-13T01:37:20;22.40;99.90
16243;DHT22;11719;51.052;6.982;2023-07-13T01:39:46;22.30;99.90
16243;DHT22;11719;51.052;6.982;2023-07-13T01:42:12;22.30;99.90
16243;DHT22;11719;51.052;6.982;2023-07-13T01:44:38;22.30;99.90
16243;DHT22;11719;51.052;6.982;2023-07-13T01:47:04;22.30;99.90
16243;DHT22;11719;51.052;6.982;2023-07-13T01:49:31;22.30;99.60
16243;DHT22;11719;51.052;6.982;2023-07-13T01:51:56;22.20;99.90
16243;DHT22;11719;51.052;6.982;2023-07-13T01:54:22;22.20;99.90
16243;DHT22;11719;51.052;6.982;2023-07-13T01:56:48;22.20;99.90
16243;DHT22;11719;51.052;6.982;2023-07-13T01:59:14;22.20;99.80
16243;DHT22;11719;51.052;6.982;2023-07-13T02:01:40;22.10;99.90
16243;DHT22;11719;51.052;6.982;2023-07-13T02:04:06;22.10;99.90
16243;DHT22;11719;51.052;6.982;2023-07-13T02:06:31;22.10;99.90
16243;DHT22;11719;51.052;6.982;2023-07-13T02:08:58;22.10;99.20
16243;DHT22;11719;51.052;6.982;2023-07-13T02:11:24;22.00;99.90
16243;DHT22;11719;51.052;6.982;2023-07-13T02:13:50;22.00;99.90
16243;DHT22;11719;51.052;6.982;2023-07-13T02:16:17;22.10;99.90
16243;DHT22;11719;51.052;6.982;2023-07-13T02:18:43;22.10;99.90
16243;DHT22;11719;51.052;6.982;2023-07-13T02:21:08;22.10;99.90
16243;DHT22;11719;51.052;6.982;2023-07-13T02:23:34;22.20;99.90
16243;DHT22;11719;51.052;6.982;2023-07-13T02:26:01;22.20;99.90
16243;DHT22;11719;51.052;6.982;2023-07-13T02:28:30;22.20;99.90
16243;DHT22;11719;51.052;6.982;2023-07-13T02:31:11;22.20;99.90
16243;DHT22;11719;51.052;6.982;2023-07-13T02:33:37;22.10;99.90
16243;DHT22;11719;51.052;6.982;2023-07-13T02:36:04;22.10;99.90
16243;DHT22;11719;51.052;6.982;2023-07-13T02:38:31;22.10;99.90
16243;DHT22;11719;51.052;6.982;2023-07-13T02:41:02;22.20;99.90
16243;DHT22;11719;51.052;6.982;2023-07-13T02:43:29;22.20;99.90
16243;DHT22;11719;51.052;6.982;2023-07-13T02:45:55;22.10;99.90
16243;DHT22;11719;51.052;6.982;2023-07-13T02:48:21;22.10;99.90
16243;DHT22;11719;51.052;6.982;2023-07-13T02:50:47;22.00;99.90
16243;DHT22;11719;51.052;6.982;2023-07-13T02:53:13;22.00;99.90
16243;DHT22;11719;51.052;6.982;2023-07-13T02:55:38;21.90;99.90
16243;DHT22;11719;51.052;6.982;2023-07-13T02:58:06;21.90;99.90
16243;DHT22;11719;51.052;6.982;2023-07-13T03:00:32;21.80;99.90
16243;DHT22;11719;51.052;6.982;2023-07-13T03:02:58;21.90;99.90
16243;DHT22;11719;51.052;6.982;2023-07-13T03:05:24;22.00;99.90
16243;DHT22;11719;51.052;6.982;2023-07-13T03:07:50;22.00;99.90
16243;DHT22;11719;51.052;6.982;2023-07-13T03:10:15;22.00;99.90
16243;DHT22;11719;51.052;6.982;2023-07-13T03:12:42;21.90;99.90
16243;DHT22;11719;51.052;6.982;2023-07-13T03:15:08;22.00;99.90
16243;DHT22;11719;51.052;6.982;2023-07-13T03:17:34;21.90;99.90
16243;DHT22;11719;51.052;6.982;2023-07-13T03:20:00;21.90;99.90
16243;DHT22;11719;51.052;6.982;2023-07-13T03:22:25;21.90;99.90
16243;DHT22;11719;51.052;6.982;2023-07-13T03:24:51;21.90;99.90
16243;DHT22;11719;51.052;6.982;2023-07-13T03:27:18;21.90;99.90
16243;DHT22;11719;51.052;6.982;2023-07-13T03:29:44;21.90;99.90
16243;DHT22;11719;51.052;6.982;2023-07-13T03:32:09;21.80;99.90
16243;DHT22;11719;51.052;6.982;2023-07-13T03:34:35;21.80;99.90
16243;DHT22;11719;51.052;6.982;2023-07-13T03:37:01;21.90;99.90
16243;DHT22;11719;51.052;6.982;2023-07-13T03:39:27;21.90;99.90
16243;DHT22;11719;51.052;6.982;2023-07-13T03:41:54;21.90;99.90
16243;DHT22;11719;51.052;6.982;2023-07-13T03:44:19;21.80;99.90
16243;DHT22;11719;51.052;6.982;2023-07-13T03:46:45;21.70;99.90
16243;DHT22;11719;51.052;6.982;2023-07-13T03:49:11;21.60;99.90
16243;DHT22;11719;51.052;6.982;2023-07-13T03:51:37;21.60;99.90
16243;DHT22;11719;51.052;6.982;2023-07-13T03:54:03;21.70;99.90
16243;DHT22;11719;51.052;6.982;2023-07-13T03:56:29;21.70;99.90
16243;DHT22;11719;51.052;6.982;2023-07-13T03:58:56;21.70;99.90
16243;DHT22;11719;51.052;6.982;2023-07-13T04:01:23;21.50;99.90
16243;DHT22;11719;51.052;6.982;2023-07-13T04:03:52;21.50;99.90
16243;DHT22;11719;51.052;6.982;2023-07-13T04:06:21;21.50;99.90
16243;DHT22;11719;51.052;6.982;2023-07-13T04:08:51;21.40;99.90
16243;DHT22;11719;51.052;6.982;2023-07-13T04:11:19;21.40;99.90
16243;DHT22;11719;51.052;6.982;2023-07-13T04:13:47;21.50;99.90
16243;DHT22;11719;51.052;6.982;2023-07-13T04:16:14;21.50;99.90
16243;DHT22;11719;51.052;6.982;2023-07-13T04:18:40;21.60;99.90
16243;DHT22;11719;51.052;6.982;2023-07-13T04:21:06;21.60;99.90
16243;DHT22;11719;51.052;6.982;2023-07-13T04:23:32;21.70;99.90
16243;DHT22;11719;51.052;6.982;2023-07-13T04:26:02;21.70;99.90
16243;DHT22;11719;51.052;6.982;2023-07-13T04:28:30;21.70;99.90
16243;DHT22;11719;51.052;6.982;2023-07-13T04:30:56;21.70;99.90
16243;DHT22;11719;51.052;6.982;2023-07-13T04:33:22;21.70;99.90
16243;DHT22;11719;51.052;6.982;2023-07-13T04:35:49;21.60;99.90
16243;DHT22;11719;51.052;6.982;2023-07-13T04:38:20;21.60;99.90
16243;DHT22;11719;51.052;6.982;2023-07-13T04:40:46;21.50;99.90
16243;DHT22;11719;51.052;6.982;2023-07-13T04:43:12;21.50;99.90
16243;DHT22;11719;51.052;6.982;2023-07-13T04:45:38;21.30;99.90
16243;DHT22;11719;51.052;6.982;2023-07-13T04:48:04;21.30;99.90
16243;DHT22;11719;51.052;6.982;2023-07-13T04:50:31;21.40;99.90
16243;DHT22;11719;51.052;6.982;2023-07-13T04:52:56;21.40;99.90
16243;DHT22;11719;51.052;6.982;2023-07-13T04:55:22;21.50;99.90
16243;DHT22;11719;51.052;6.982;2023-07-13T04:57:48;21.50;99.90
16243;DHT22;11719;51.052;6.982;2023-07-13T05:00:14;21.50;99.90
16243;DHT22;11719;51.052;6.982;2023-07-13T05:02:44;21.40;99.90
16243;DHT22;11719;51.052;6.982;2023-07-13T05:05:11;21.40;99.90
16243;DHT22;11719;51.052;6.982;2023-07-13T05:07:37;21.50;99.90
16243;DHT22;11719;51.052;6.982;2023-07-13T05:10:03;21.50;99.90
16243;DHT22;11719;51.052;6.982;2023-07-13T05:12:29;21.40;99.90
16243;DHT22;11719;51.052;6.982;2023-07-13T05:14:55;21.40;99.90
16243;DHT22;11719;51.052;6.982;2023-07-13T05:17:21;21.40;99.90
16243;DHT22;11719;51.052;6.982;2023-07-13T05:19:47;21.40;99.90
16243;DHT22;11719;51.052;6.982;2023-07-13T05:22:13;21.40;99.90
16243;DHT22;11719;51.052;6.982;2023-07-13T05:24:39;21.50;99.90
16243;DHT22;11719;51.052;6.982;2023-07-13T05:27:05;21.40;99.90
16243;DHT22;11719;51.052;6.982;2023-07-13T05:29:31;21.30;99.90
16243;DHT22;11719;51.052;6.982;2023-07-13T05:31:56;21.30;99.90
16243;DHT22;11719;51.052;6.982;2023-07-13T05:34:22;21.20;99.90
16243;DHT22;11719;51.052;6.982;2023-07-13T05:36:48;21.30;99.90
16243;DHT22;11719;51.052;6.982;2023-07-13T05:39:14;21.20;99.90
16243;DHT22;11719;51.052;6.982;2023-07-13T05:41:41;21.30;99.90
16243;DHT22;11719;51.052;6.982;2023-07-13T05:44:06;21.40;99.90
16243;DHT22;11719;51.052;6.982;2023-07-13T05:46:32;21.40;99.90
16243;DHT22;11719;51.052;6.982;2023-07-13T05:48:59;21.40;99.90
16243;DHT22;11719;51.052;6.982;2023-07-13T05:51:25;21.30;99.90
16243;DHT22;11719;51.052;6.982;2023-07-13T05:53:50;21.30;99.90
16243;DHT22;11719;51.052;6.982;2023-07-13T05:56:16;21.30;99.90
16243;DHT22;11719;51.052;6.982;2023-07-13T05:58:42;21.30;99.90
16243;DHT22;11719;51.052;6.982;2023-07-13T06:01:12;21.40;99.90
16243;DHT22;11719;51.052;6.982;2023-07-13T06:03:39;21.40;99.90
16243;DHT22;11719;51.052;6.982;2023-07-13T06:06:05;21.40;99.90
16243;DHT22;11719;51.052;6.982;2023-07-13T06:08:32;21.30;99.90
16243;DHT22;11719;51.052;6.982;2023-07-13T06:11:22;21.30;99.90
16243;DHT22;11719;51.052;6.982;2023-07-13T06:13:49;21.40;99.90
16243;DHT22;11719;51.052;6.982;2023-07-13T06:16:16;21.50;99.90
16243;DHT22;11719;51.052;6.982;2023-07-13T06:18:42;21.40;99.90
16243;DHT22;11719;51.052;6.982;2023-07-13T06:21:11;21.50;99.90
16243;DHT22;11719;51.052;6.982;2023-07-13T06:23:45;21.40;99.90
16243;DHT22;11719;51.052;6.982;2023-07-13T06:26:13;21.40;99.90
16243;DHT22;11719;51.052;6.982;2023-07-13T06:28:39;21.30;99.90
16243;DHT22;11719;51.052;6.982;2023-07-13T06:31:09;21.40;99.90
16243;DHT22;11719;51.052;6.982;2023-07-13T06:33:36;21.40;99.90
16243;DHT22;11719;51.052;6.982;2023-07-13T06:36:03;21.40;99.90
16243;DHT22;11719;51.052;6.982;2023-07-13T06:38:30;21.40;99.90
16243;DHT22;11719;51.052;6.982;2023-07-13T06:40:56;21.30;99.90
16243;DHT22;11719;51.052;6.982;2023-07-13T06:43:22;21.30;99.90
16243;DHT22;11719;51.052;6.982;2023-07-13T06:45:50;21.30;99.90
16243;DHT22;11719;51.052;6.982;2023-07-13T06:48:17;21.40;99.90
16243;DHT22;11719;51.052;6.982;2023-07-13T06:50:44;21.30;99.90
16243;DHT22;11719;51.052;6.982;2023-07-13T06:53:12;21.30;99.90
16243;DHT22;11719;51.052;6.982;2023-07-13T06:55:38;21.30;99.90
16243;DHT22;11719;51.052;6.982;2023-07-13T06:58:04;21.40;99.90
16243;DHT22;11719;51.052;6.982;2023-07-13T07:00:30;21.30;99.90
16243;DHT22;11719;51.052;6.982;2023-07-13T07:02:56;21.30;99.90
16243;DHT22;11719;51.052;6.982;2023-07-13T07:05:22;21.30;99.90
16243;DHT22;11719;51.052;6.982;2023-07-13T07:07:51;21.30;99.90
16243;DHT22;11719;51.052;6.982;2023-07-13T07:10:19;21.40;99.90
16243;DHT22;11719;51.052;6.982;2023-07-13T07:12:46;21.40;99.90
16243;DHT22;11719;51.052;6.982;2023-07-13T07:15:12;21.40;99.90
16243;DHT22;11719;51.052;6.982;2023-07-13T07:17:38;21.50;99.90
16243;DHT22;11719;51.052;6.982;2023-07-13T07:20:04;21.50;99.90
16243;DHT22;11719;51.052;6.982;2023-07-13T07:22:31;21.40;99.90
16243;DHT22;11719;51.052;6.982;2023-07-13T07:24:57;21.40;99.90
16243;DHT22;11719;51.052;6.982;2023-07-13T07:27:23;21.40;99.90
16243;DHT22;11719;51.052;6.982;2023-07-13T07:29:49;21.50;99.90
16243;DHT22;11719;51.052;6.982;2023-07-13T07:32:16;21.60;99.90
16243;DHT22;11719;51.052;6.982;2023-07-13T07:34:41;21.60;99.90
16243;DHT22;11719;51.052;6.982;2023-07-13T07:37:11;21.60;99.90
16243;DHT22;11719;51.052;6.982;2023-07-13T07:39:38;21.60;99.90
16243;DHT22;11719;51.052;6.982;2023-07-13T07:42:04;21.60;99.90
16243;DHT22;11719;51.052;6.982;2023-07-13T07:44:33;21.70;99.90
16243;DHT22;11719;51.052;6.982;2023-07-13T07:47:00;21.70;99.90
16243;DHT22;11719;51.052;6.982;2023-07-13T07:49:26;21.70;99.90
16243;DHT22;11719;51.052;6.982;2023-07-13T07:51:52;21.70;99.90
16243;DHT22;11719;51.052;6.982;2023-07-13T07:54:18;21.70;99.90
16243;DHT22;11719;51.052;6.982;2023-07-13T07:56:44;21.80;99.90
16243;DHT22;11719;51.052;6.982;2023-07-13T07:59:10;21.80;99.90
16243;DHT22;11719;51.052;6.982;2023-07-13T08:01:36;21.80;99.90
16243;DHT22;11719;51.052;6.982;2023-07-13T08:04:02;21.90;99.90
16243;DHT22;11719;51.052;6.982;2023-07-13T08:06:28;21.90;99.90
16243;DHT22;11719;51.052;6.982;2023-07-13T08:08:54;21.80;99.90
16243;DHT22;11719;51.052;6.982;2023-07-13T08:11:21;21.90;99.90
16243;DHT22;11719;51.052;6.982;2023-07-13T08:13:47;21.90;99.90
16243;DHT22;11719;51.052;6.982;2023-07-13T08:16:13;22.00;99.90
16243;DHT22;11719;51.052;6.982;2023-07-13T08:18:39;22.00;99.90
16243;DHT22;11719;51.052;6.982;2023-07-13T08:21:05;21.90;99.90
16243;DHT22;11719;51.052;6.982;2023-07-13T08:23:32;22.00;99.90
16243;DHT22;11719;51.052;6.982;2023-07-13T08:25:58;22.10;99.90
16243;DHT22;11719;51.052;6.982;2023-07-13T08:28:26;22.00;99.90
16243;DHT22;11719;51.052;6.982;2023-07-13T08:30:53;22.10;99.90
16243;DHT22;11719;51.052;6.982;2023-07-13T08:33:20;22.10;99.90
16243;DHT22;11719;51.052;6.982;2023-07-13T08:35:49;22.10;99.90
16243;DHT22;11719;51.052;6.982;2023-07-13T08:38:16;22.10;99.90
16243;DHT22;11719;51.052;6.982;2023-07-13T08:40:43;22.10;99.90
16243;DHT22;11719;51.052;6.982;2023-07-13T08:43:16;22.00;99.90
16243;DHT22;11719;51.052;6.982;2023-07-13T08:45:45;22.00;99.90
16243;DHT22;11719;51.052;6.982;2023-07-13T08:48:26;22.10;99.90
16243;DHT22;11719;51.052;6.982;2023-07-13T08:51:12;22.10;99.90
16243;DHT22;11719;51.052;6.982;2023-07-13T08:53:49;22.20;99.90
16243;DHT22;11719;51.052;6.982;2023-07-13T08:56:25;22.20;99.90
16243;DHT22;11719;51.052;6.982;2023-07-13T08:59:11;22.20;99.90
16243;DHT22;11719;51.052;6.982;2023-07-13T09:05:04;22.30;99.90
16243;DHT22;11719;51.052;6.982;2023-07-13T09:10:43;22.30;99.90
16243;DHT22;11719;51.052;6.982;2023-07-13T09:15:54;22.30;99.90
16243;DHT22;11719;51.052;6.982;2023-07-13T09:21:09;22.30;99.90
16243;DHT22;11719;51.052;6.982;2023-07-13T09:23:38;22.30;99.90
16243;DHT22;11719;51.052;6.982;2023-07-13T09:26:12;22.30;99.90
16243;DHT22;11719;51.052;6.982;2023-07-13T09:28:44;22.30;99.90
16243;DHT22;11719;51.052;6.982;2023-07-13T09:31:37;22.30;99.90
16243;DHT22;11719;51.052;6.982;2023-07-13T09:34:11;22.40;99.90
16243;DHT22;11719;51.052;6.982;2023-07-13T09:36:38;22.40;99.90
16243;DHT22;11719;51.052;6.982;2023-07-13T09:41:57;22.30;99.90
16243;DHT22;11719;51.052;6.982;2023-07-13T09:44:53;22.30;99.90
16243;DHT22;11719;51.052;6.982;2023-07-13T09:47:31;22.40;99.90
16243;DHT22;11719;51.052;6.982;2023-07-13T09:50:09;22.30;99.90
16243;DHT22;11719;51.052;6.982;2023-07-13T09:52:48;22.30;99.90
16243;DHT22;11719;51.052;6.982;2023-07-13T09:58:24;22.30;99.90
16243;DHT22;11719;51.052;6.982;2023-07-13T10:00:59;22.30;99.90
16243;DHT22;11719;51.052;6.982;2023-07-13T10:03:32;22.30;99.90
16243;DHT22;11719;51.052;6.982;2023-07-13T10:06:20;22.30;99.90
16243;DHT22;11719;51.052;6.982;2023-07-13T10:08:52;22.40;99.90
16243;DHT22;11719;51.052;6.982;2023-07-13T10:11:22;22.40;99.90
16243;DHT22;11719;51.052;6.982;2023-07-13T10:13:54;22.40;99.90
16243;DHT22;11719;51.052;6.982;2023-07-13T10:16:27;22.40;99.90
16243;DHT22;11719;51.052;6.982;2023-07-13T10:19:14;22.40;99.90
16243;DHT22;11719;51.052;6.982;2023-07-13T10:21:57;22.40;99.90
16243;DHT22;11719;51.052;6.982;2023-07-13T10:24:33;22.50;99.90
16243;DHT22;11719;51.052;6.982;2023-07-13T10:27:15;22.50;99.90
16243;DHT22;11719;51.052;6.982;2023-07-13T10:32:34;22.60;99.90
16243;DHT22;11719;51.052;6.982;2023-07-13T10:35:00;22.60;99.90
16243;DHT22;11719;51.052;6.982;2023-07-13T10:37:33;22.60;99.90
16243;DHT22;11719;51.052;6.982;2023-07-13T10:40:05;22.60;99.90
16243;DHT22;11719;51.052;6.982;2023-07-13T10:42:39;22.70;99.90
16243;DHT22;11719;51.052;6.982;2023-07-13T10:45:25;22.70;99.90
16243;DHT22;11719;51.052;6.982;2023-07-13T10:47:54;22.80;99.90
16243;DHT22;11719;51.052;6.982;2023-07-13T10:50:28;22.90;99.90
16243;DHT22;11719;51.052;6.982;2023-07-13T10:53:02;22.80;99.90
16243;DHT22;11719;51.052;6.982;2023-07-13T10:55:33;22.80;99.90
16243;DHT22;11719;51.052;6.982;2023-07-13T10:58:20;22.80;99.90
16243;DHT22;11719;51.052;6.982;2023-07-13T11:01:18;22.90;99.90
16243;DHT22;11719;51.052;6.982;2023-07-13T11:11:33;22.90;99.90
16243;DHT22;11719;51.052;6.982;2023-07-13T11:14:02;23.00;99.90
16243;DHT22;11719;51.052;6.982;2023-07-13T11:16:45;22.90;99.90
16243;DHT22;11719;51.052;6.982;2023-07-13T11:22:11;23.00;99.90
16243;DHT22;11719;51.052;6.982;2023-07-13T11:24:59;22.90;99.90
16243;DHT22;11719;51.052;6.982;2023-07-13T11:27:41;22.90;99.90
16243;DHT22;11719;51.052;6.982;2023-07-13T11:32:44;22.90;99.90
16243;DHT22;11719;51.052;6.982;2023-07-13T11:35:26;22.90;99.90
16243;DHT22;11719;51.052;6.982;2023-07-13T11:37:52;23.00;99.90
16243;DHT22;11719;51.052;6.982;2023-07-13T11:40:19;23.00;99.90
16243;DHT22;11719;51.052;6.982;2023-07-13T11:42:48;23.10;99.90
16243;DHT22;11719;51.052;6.982;2023-07-13T11:45:21;23.10;99.90
16243;DHT22;11719;51.052;6.982;2023-07-13T11:47:49;23.10;99.90
16243;DHT22;11719;51.052;6.982;2023-07-13T11:50:20;23.00;99.90
16243;DHT22;11719;51.052;6.982;2023-07-13T11:52:49;23.00;99.90
16243;DHT22;11719;51.052;6.982;2023-07-13T11:55:18;23.00;99.90
16243;DHT22;11719;51.052;6.982;2023-07-13T11:58:10;23.00;99.90
16243;DHT22;11719;51.052;6.982;2023-07-13T12:00:37;23.00;99.90
16243;DHT22;11719;51.052;6.982;2023-07-13T12:03:04;23.10;99.90
16243;DHT22;11719;51.052;6.982;2023-07-13T12:05:31;23.10;99.90
16243;DHT22;11719;51.052;6.982;2023-07-13T12:07:58;23.10;99.90
16243;DHT22;11719;51.052;6.982;2023-07-13T12:10:28;23.10;99.90
16243;DHT22;11719;51.052;6.982;2023-07-13T12:13:05;23.10;99.90
16243;DHT22;11719;51.052;6.982;2023-07-13T12:15:40;23.10;99.90
16243;DHT22;11719;51.052;6.982;2023-07-13T12:18:15;23.10;99.90
16243;DHT22;11719;51.052;6.982;2023-07-13T12:20:45;23.10;99.90
16243;DHT22;11719;51.052;6.982;2023-07-13T12:23:24;23.20;99.90
16243;DHT22;11719;51.052;6.982;2023-07-13T12:25:51;23.30;99.90
16243;DHT22;11719;51.052;6.982;2023-07-13T12:29:05;23.40;99.90
16243;DHT22;11719;51.052;6.982;2023-07-13T12:31:25;23.40;99.70
16243;DHT22;11719;51.052;6.982;2023-07-13T12:34:02;23.50;99.90
16243;DHT22;11719;51.052;6.982;2023-07-13T12:36:35;23.50;99.90
16243;DHT22;11719;51.052;6.982;2023-07-13T12:39:11;23.50;99.90
16243;DHT22;11719;51.052;6.982;2023-07-13T12:41:39;23.60;99.90
16243;DHT22;11719;51.052;6.982;2023-07-13T12:44:11;23.60;99.90
16243;DHT22;11719;51.052;6.982;2023-07-13T12:46:37;23.60;99.70
16243;DHT22;11719;51.052;6.982;2023-07-13T12:49:06;23.60;99.60
16243;DHT22;11719;51.052;6.982;2023-07-13T12:51:33;23.60;99.40
16243;DHT22;11719;51.052;6.982;2023-07-13T12:54:18;23.60;99.90
16243;DHT22;11719;51.052;6.982;2023-07-13T12:56:45;23.60;99.50
16243;DHT22;11719;51.052;6.982;2023-07-13T12:59:19;23.50;99.10
16243;DHT22;11719;51.052;6.982;2023-07-13T13:01:48;23.50;99.10
16243;DHT22;11719;51.052;6.982;2023-07-13T13:04:15;23.60;98.80
16243;DHT22;11719;51.052;6.982;2023-07-13T13:06:41;23.60;99.60
16243;DHT22;11719;51.052;6.982;2023-07-13T13:09:14;23.50;98.90
16243;DHT22;11719;51.052;6.982;2023-07-13T13:11:41;23.60;99.20
16243;DHT22;11719;51.052;6.982;2023-07-13T13:14:08;23.60;99.40
16243;DHT22;11719;51.052;6.982;2023-07-13T13:16:47;23.70;99.30
16243;DHT22;11719;51.052;6.982;2023-07-13T13:19:25;23.70;99.30
16243;DHT22;11719;51.052;6.982;2023-07-13T13:21:54;23.60;99.20
16243;DHT22;11719;51.052;6.982;2023-07-13T13:24:24;23.70;97.70
16243;DHT22;11719;51.052;6.982;2023-07-13T13:26:52;23.70;98.50
16243;DHT22;11719;51.052;6.982;2023-07-13T13:29:21;23.70;96.80
16243;DHT22;11719;51.052;6.982;2023-07-13T13:31:50;23.60;97.30
16243;DHT22;11719;51.052;6.982;2023-07-13T13:34:18;23.60;96.90
16243;DHT22;11719;51.052;6.982;2023-07-13T13:36:46;23.60;97.00
16243;DHT22;11719;51.052;6.982;2023-07-13T13:39:25;23.70;97.40
16243;DHT22;11719;51.052;6.982;2023-07-13T13:41:55;23.70;96.20
16243;DHT22;11719;51.052;6.982;2023-07-13T13:44:21;23.70;98.20
16243;DHT22;11719;51.052;6.982;2023-07-13T13:46:50;23.70;97.50
16243;DHT22;11719;51.052;6.982;2023-07-13T13:49:23;23.70;97.70
16243;DHT22;11719;51.052;6.982;2023-07-13T13:51:51;23.70;97.10
16243;DHT22;11719;51.052;6.982;2023-07-13T13:54:18;23.80;96.80
16243;DHT22;11719;51.052;6.982;2023-07-13T13:56:48;23.90;96.40
16243;DHT22;11719;51.052;6.982;2023-07-13T13:59:16;23.80;97.40
16243;DHT22;11719;51.052;6.982;2023-07-13T14:01:44;23.80;97.50
16243;DHT22;11719;51.052;6.982;2023-07-13T14:04:19;23.80;97.10
16243;DHT22;11719;51.052;6.982;2023-07-13T14:06:46;23.90;96.50
16243;DHT22;11719;51.052;6.982;2023-07-13T14:09:15;24.00;96.60
16243;DHT22;11719;51.052;6.982;2023-07-13T14:11:44;24.10;97.20
16243;DHT22;11719;51.052;6.982;2023-07-13T14:14:22;24.20;96.30
16243;DHT22;11719;51.052;6.982;2023-07-13T14:16:50;24.40;95.00
16243;DHT22;11719;51.052;6.982;2023-07-13T14:19:20;24.40;95.50
16243;DHT22;11719;51.052;6.982;2023-07-13T14:21:46;24.40;95.20
16243;DHT22;11719;51.052;6.982;2023-07-13T14:24:14;24.40;96.80
16243;DHT22;11719;51.052;6.982;2023-07-13T14:26:41;24.40;94.70
16243;DHT22;11719;51.052;6.982;2023-07-13T14:29:17;24.50;95.20
16243;DHT22;11719;51.052;6.982;2023-07-13T14:31:44;24.40;95.00
16243;DHT22;11719;51.052;6.982;2023-07-13T14:34:11;24.40;95.40
16243;DHT22;11719;51.052;6.982;2023-07-13T14:36:43;24.30;95.30
16243;DHT22;11719;51.052;6.982;2023-07-13T14:41:45;24.30;94.50
16243;DHT22;11719;51.052;6.982;2023-07-13T14:44:15;24.30;93.90
16243;DHT22;11719;51.052;6.982;2023-07-13T14:46:44;24.40;95.00
16243;DHT22;11719;51.052;6.982;2023-07-13T14:52:11;24.50;95.30
16243;DHT22;11719;51.052;6.982;2023-07-13T14:54:39;24.30;94.90
16243;DHT22;11719;51.052;6.982;2023-07-13T14:57:14;24.30;95.50
16243;DHT22;11719;51.052;6.982;2023-07-13T14:59:45;24.10;96.10
16243;DHT22;11719;51.052;6.982;2023-07-13T15:02:31;24.20;94.50
16243;DHT22;11719;51.052;6.982;2023-07-13T15:04:59;24.10;95.30
16243;DHT22;11719;51.052;6.982;2023-07-13T15:07:25;24.10;95.40
16243;DHT22;11719;51.052;6.982;2023-07-13T15:09:51;24.10;95.40
16243;DHT22;11719;51.052;6.982;2023-07-13T15:12:17;24.00;96.00
16243;DHT22;11719;51.052;6.982;2023-07-13T15:14:44;24.00;96.30
16243;DHT22;11719;51.052;6.982;2023-07-13T15:17:31;23.90;95.70
16243;DHT22;11719;51.052;6.982;2023-07-13T15:20:04;23.90;96.00
16243;DHT22;11719;51.052;6.982;2023-07-13T15:22:41;23.90;95.10
16243;DHT22;11719;51.052;6.982;2023-07-13T15:25:16;24.00;95.20
16243;DHT22;11719;51.052;6.982;2023-07-13T15:27:47;24.00;95.70
16243;DHT22;11719;51.052;6.982;2023-07-13T15:30:13;23.90;95.80
16243;DHT22;11719;51.052;6.982;2023-07-13T15:32:41;23.90;95.20
16243;DHT22;11719;51.052;6.982;2023-07-13T15:35:19;23.90;95.30
16243;DHT22;11719;51.052;6.982;2023-07-13T15:37:48;23.90;95.90
16243;DHT22;11719;51.052;6.982;2023-07-13T15:40:16;23.80;95.80
16243;DHT22;11719;51.052;6.982;2023-07-13T15:42:43;23.80;96.60
16243;DHT22;11719;51.052;6.982;2023-07-13T15:45:23;23.70;97.80
16243;DHT22;11719;51.052;6.982;2023-07-13T15:47:50;23.60;98.30
16243;DHT22;11719;51.052;6.982;2023-07-13T15:50:24;23.60;98.90
16243;DHT22;11719;51.052;6.982;2023-07-13T15:52:52;23.50;99.80
16243;DHT22;11719;51.052;6.982;2023-07-13T15:55:20;23.40;99.90
16243;DHT22;11719;51.052;6.982;2023-07-13T15:57:48;23.30;99.90
16243;DHT22;11719;51.052;6.982;2023-07-13T16:00:20;23.20;99.90
16243;DHT22;11719;51.052;6.982;2023-07-13T16:02:51;23.20;99.90
16243;DHT22;11719;51.052;6.982;2023-07-13T16:05:19;23.20;99.90
16243;DHT22;11719;51.052;6.982;2023-07-13T16:07:48;23.20;99.90
16243;DHT22;11719;51.052;6.982;2023-07-13T16:10:16;23.20;99.90
16243;DHT22;11719;51.052;6.982;2023-07-13T16:12:44;23.10;99.90
16243;DHT22;11719;51.052;6.982;2023-07-13T16:15:15;23.10;99.90
16243;DHT22;11719;51.052;6.982;2023-07-13T16:17:46;23.10;99.90
16243;DHT22;11719;51.052;6.982;2023-07-13T16:20:14;23.10;99.90
16243;DHT22;11719;51.052;6.982;2023-07-13T16:22:43;23.10;99.90
16243;DHT22;11719;51.052;6.982;2023-07-13T16:25:19;23.10;99.90
16243;DHT22;11719;51.052;6.982;2023-07-13T16:27:47;23.00;99.90
16243;DHT22;11719;51.052;6.982;2023-07-13T16:30:18;23.00;99.90
16243;DHT22;11719;51.052;6.982;2023-07-13T16:32:50;22.90;99.90
16243;DHT22;11719;51.052;6.982;2023-07-13T16:35:21;22.90;99.90